Quicksand, Kentucky
Current Conditions -  °F | °C
As of 6:53 PM on Thursday 27 Nov 2014 (Local Time) from KJKL Reporting Station
Overcast Overcast  
Wind Chill: 30°   Ceiling: 2300
Heat Index: 30°   Visibility: 10mi
Dew Point: 22°   Wind: 3mph
Humidity: 72%   Direction: 230°SW
Pressure: 30.33"   Gusts: NA
Location:  37.532°N, 83.3068°W
Report Text: KJKL 272353Z AUTO 23003KT 10SM BKN023 BKN030 OVC035 M01/M06 A3033 RMK AO2 SLP283 T10111056 11006 21011 51010
Loading
Personal Weather Stations






























Interactive Weather Map New forecast layout! Learn more

10-Day Weather Forecast

Advertisements
Track Severe Weather on mobile